createdAt,value
2023-03-31T00:01:36.800Z,79.00
2023-03-31T00:04:06.150Z,79.20
2023-03-31T00:06:39.610Z,79.00
2023-03-31T00:09:11.762Z,78.90
2023-03-31T00:11:41.680Z,79.10
2023-03-31T00:14:10.884Z,78.90
2023-03-31T00:16:41.211Z,78.60
2023-03-31T00:19:19.633Z,78.40
2023-03-31T00:21:50.059Z,78.70
2023-03-31T00:24:19.497Z,78.60
2023-03-31T00:26:48.555Z,78.60
2023-03-31T00:29:17.533Z,78.50
2023-03-31T00:31:46.651Z,78.40
2023-03-31T00:34:15.625Z,78.50
2023-03-31T00:36:48.573Z,78.30
2023-03-31T00:39:20.409Z,78.10
2023-03-31T00:41:50.208Z,78.10
2023-03-31T00:44:25.567Z,78.50
2023-03-31T00:47:22.267Z,78.30
2023-03-31T00:49:58.181Z,78.70
2023-03-31T00:52:32.232Z,78.00
2023-03-31T00:55:12.068Z,77.60
2023-03-31T00:57:43.022Z,77.30
2023-03-31T01:00:17.147Z,77.30
2023-03-31T01:02:57.136Z,77.20
2023-03-31T01:05:34.472Z,77.10
2023-03-31T01:08:06.871Z,76.90
2023-03-31T01:10:43.111Z,76.80
2023-03-31T01:13:14.685Z,76.60
2023-03-31T01:15:44.732Z,76.40
2023-03-31T01:18:17.701Z,76.50
2023-03-31T01:20:55.560Z,76.50
2023-03-31T01:23:52.188Z,76.30
2023-03-31T01:26:43.168Z,76.00
2023-03-31T01:29:42.020Z,75.90
2023-03-31T01:32:55.703Z,75.60
2023-03-31T01:35:53.854Z,75.30
2023-03-31T01:39:00.393Z,75.30
2023-03-31T01:41:56.930Z,74.80
2023-03-31T01:44:34.842Z,74.40
2023-03-31T01:47:36.881Z,74.20
2023-03-31T01:50:28.106Z,74.00
2023-03-31T01:53:17.329Z,73.90
2023-03-31T01:55:53.573Z,73.80
2023-03-31T01:58:44.432Z,73.50
2023-03-31T02:01:24.646Z,73.20
2023-03-31T02:04:00.188Z,73.10
2023-03-31T02:06:41.064Z,72.80
2023-03-31T02:09:17.955Z,72.60
2023-03-31T02:11:49.935Z,72.30
2023-03-31T02:14:23.323Z,72.10
2023-03-31T02:16:59.630Z,72.00
2023-03-31T02:19:33.995Z,71.60
2023-03-31T02:22:06.859Z,71.50
2023-03-31T02:24:38.369Z,71.60
2023-03-31T02:27:25.654Z,71.50
2023-03-31T02:29:55.790Z,71.50
2023-03-31T02:32:36.026Z,71.40
2023-03-31T02:35:07.464Z,71.20
2023-03-31T02:37:37.540Z,71.10
2023-03-31T02:40:13.872Z,71.00
2023-03-31T02:42:44.155Z,70.70
2023-03-31T02:45:42.569Z,70.70
2023-03-31T02:48:29.702Z,70.10
2023-03-31T02:51:10.948Z,70.00
2023-03-31T02:53:51.038Z,69.50
2023-03-31T02:56:47.233Z,69.50
2023-03-31T02:59:53.186Z,68.60
2023-03-31T03:02:55.423Z,68.50
2023-03-31T03:05:50.893Z,68.10
2023-03-31T03:08:44.428Z,68.10
2023-03-31T03:11:41.132Z,68.00
2023-03-31T03:14:19.698Z,67.20
2023-03-31T03:16:57.747Z,66.90
2023-03-31T03:19:27.701Z,66.90
2023-03-31T03:21:57.245Z,66.50
2023-03-31T03:24:30.680Z,66.30
2023-03-31T03:26:59.742Z,66.00
2023-03-31T03:29:29.276Z,64.20
2023-03-31T03:31:58.283Z,65.50
2023-03-31T03:34:28.212Z,65.30
2023-03-31T03:36:57.207Z,64.90
2023-03-31T03:39:26.212Z,64.20
2023-03-31T03:41:55.527Z,64.00
2023-03-31T03:44:27.212Z,63.40
2023-03-31T03:46:56.397Z,63.40
2023-03-31T03:49:25.484Z,63.20
2023-03-31T03:51:54.508Z,63.60
2023-03-31T03:54:23.545Z,63.20
2023-03-31T03:56:52.608Z,63.10
2023-03-31T03:59:21.649Z,62.80
2023-03-31T04:01:50.900Z,62.80
2023-03-31T04:04:20.118Z,62.70
2023-03-31T04:06:49.112Z,62.60
2023-03-31T04:09:18.319Z,62.20
2023-03-31T04:11:47.329Z,62.30
2023-03-31T04:14:16.424Z,61.70
2023-03-31T04:16:47.874Z,61.90
2023-03-31T04:19:23.037Z,61.60
2023-03-31T04:21:59.812Z,61.40
2023-03-31T04:24:34.026Z,61.10
2023-03-31T04:27:04.116Z,61.00
2023-03-31T04:29:34.704Z,60.80
2023-03-31T04:32:04.092Z,60.60
2023-03-31T04:34:38.973Z,60.50
2023-03-31T04:37:11.882Z,60.00
2023-03-31T04:39:41.120Z,59.30
2023-03-31T04:42:14.382Z,59.80
2023-03-31T04:44:43.487Z,59.70
2023-03-31T04:47:12.454Z,60.20
2023-03-31T04:49:41.444Z,59.80
2023-03-31T04:52:10.407Z,60.00
2023-03-31T04:54:39.426Z,59.80
2023-03-31T04:57:08.481Z,59.30
2023-03-31T04:59:37.453Z,59.10
2023-03-31T05:02:06.555Z,58.80
2023-03-31T05:04:35.582Z,58.50
2023-03-31T05:07:05.050Z,58.50
2023-03-31T05:09:35.078Z,58.80
2023-03-31T05:12:04.174Z,58.70
2023-03-31T05:14:33.178Z,58.20
2023-03-31T05:17:02.391Z,58.20
2023-03-31T05:19:31.566Z,58.40
2023-03-31T05:22:00.733Z,57.90
2023-03-31T05:24:31.450Z,57.80
2023-03-31T05:27:00.476Z,57.80
2023-03-31T05:29:29.680Z,57.90
2023-03-31T05:31:58.741Z,57.30
2023-03-31T05:34:27.775Z,57.10
2023-03-31T05:36:57.061Z,56.60
2023-03-31T05:39:26.306Z,56.70
2023-03-31T05:41:55.292Z,56.50
2023-03-31T05:44:24.279Z,56.80
2023-03-31T05:46:53.361Z,57.40
2023-03-31T05:49:22.665Z,56.40
2023-03-31T05:51:52.052Z,55.90
2023-03-31T05:54:21.268Z,56.70
2023-03-31T05:56:50.795Z,56.30
2023-03-31T05:59:20.553Z,55.50
2023-03-31T06:01:49.873Z,55.80
2023-03-31T06:04:19.014Z,55.40
2023-03-31T06:06:51.408Z,55.00
2023-03-31T06:09:20.390Z,55.40
2023-03-31T06:11:50.569Z,54.80
2023-03-31T06:14:19.707Z,54.40
2023-03-31T06:16:49.448Z,54.80
2023-03-31T06:19:18.532Z,54.20
2023-03-31T06:21:47.567Z,53.20
2023-03-31T06:24:16.620Z,54.50
2023-03-31T06:26:45.906Z,53.80
2023-03-31T06:29:14.866Z,52.30
2023-03-31T06:31:44.024Z,53.50
2023-03-31T06:34:13.113Z,54.10
2023-03-31T06:36:43.157Z,53.10
2023-03-31T06:39:12.130Z,52.80
2023-03-31T06:41:41.108Z,52.80
2023-03-31T06:44:10.163Z,52.20
2023-03-31T06:46:39.239Z,52.70
2023-03-31T06:49:08.297Z,53.30
2023-03-31T06:51:37.337Z,51.60
2023-03-31T06:54:06.339Z,53.00
2023-03-31T06:56:35.776Z,52.50
2023-03-31T06:59:04.923Z,53.10
2023-03-31T07:01:38.420Z,53.10
2023-03-31T07:04:07.602Z,53.10
2023-03-31T07:06:37.349Z,53.20
2023-03-31T07:09:06.583Z,52.80
2023-03-31T07:11:35.647Z,53.40
2023-03-31T07:14:04.655Z,51.60
2023-03-31T07:16:33.682Z,52.50
2023-03-31T07:19:05.485Z,52.50
2023-03-31T07:21:34.492Z,51.60
2023-03-31T07:24:03.445Z,51.90
2023-03-31T07:26:32.493Z,52.00
2023-03-31T07:29:01.586Z,52.20
2023-03-31T07:31:30.644Z,51.50
2023-03-31T07:33:59.646Z,51.60
2023-03-31T07:36:28.770Z,51.50
2023-03-31T07:38:58.291Z,51.20
2023-03-31T07:41:27.588Z,51.80
2023-03-31T07:43:56.623Z,50.70
2023-03-31T07:46:28.453Z,50.20
2023-03-31T07:48:59.917Z,50.20
2023-03-31T07:51:29.164Z,50.40
2023-03-31T07:53:58.194Z,50.20
2023-03-31T07:56:30.106Z,50.20
2023-03-31T07:59:02.116Z,50.10
2023-03-31T08:01:31.439Z,50.30
2023-03-31T08:04:00.655Z,50.20
2023-03-31T08:06:31.129Z,50.00
2023-03-31T08:09:00.901Z,50.00
2023-03-31T08:11:29.905Z,50.30
2023-03-31T08:13:59.027Z,50.20
2023-03-31T08:16:28.296Z,49.90
2023-03-31T08:18:57.354Z,50.10
2023-03-31T08:21:26.355Z,49.80
2023-03-31T08:23:58.627Z,50.00
2023-03-31T08:26:27.679Z,50.00
2023-03-31T08:29:00.220Z,49.80
2023-03-31T08:31:30.571Z,49.50
2023-03-31T08:33:59.795Z,49.80
2023-03-31T08:36:29.286Z,49.30
2023-03-31T08:38:58.643Z,49.20
2023-03-31T08:41:49.139Z,48.80
2023-03-31T08:44:38.301Z,48.40
2023-03-31T08:47:15.128Z,47.60
2023-03-31T08:49:57.967Z,49.00
2023-03-31T08:52:34.540Z,48.80
2023-03-31T08:55:12.302Z,48.80
2023-03-31T08:58:01.985Z,48.70
2023-03-31T09:00:41.663Z,48.70
2023-03-31T09:03:49.858Z,48.60
2023-03-31T09:06:45.974Z,45.60
2023-03-31T09:09:28.569Z,48.50
2023-03-31T09:12:02.110Z,48.90
2023-03-31T09:14:45.790Z,49.10
2023-03-31T09:17:29.224Z,49.40
2023-03-31T09:20:15.378Z,49.70
2023-03-31T09:23:08.463Z,50.00
2023-03-31T09:25:42.647Z,50.30
2023-03-31T09:28:32.276Z,50.60
2023-03-31T09:31:10.512Z,50.60
2023-03-31T09:33:46.197Z,50.90
2023-03-31T09:36:20.536Z,51.10
2023-03-31T09:38:49.713Z,51.30
2023-03-31T09:41:20.423Z,51.50
2023-03-31T09:43:51.273Z,51.50
2023-03-31T09:46:38.008Z,51.50
2023-03-31T09:49:14.151Z,51.40
2023-03-31T09:51:48.602Z,51.50
2023-03-31T09:54:36.276Z,51.70
2023-03-31T09:57:14.895Z,51.40
2023-03-31T09:59:45.296Z,51.60
2023-03-31T10:02:23.478Z,51.90
2023-03-31T10:04:52.630Z,52.00
2023-03-31T10:07:27.114Z,52.10
2023-03-31T10:09:57.680Z,52.10
2023-03-31T10:12:30.468Z,52.20
2023-03-31T10:15:28.208Z,52.30
2023-03-31T10:18:00.828Z,52.20
2023-03-31T10:20:53.780Z,52.60
2023-03-31T10:23:33.945Z,51.90
2023-03-31T10:26:04.941Z,52.00
2023-03-31T10:28:36.784Z,52.60
2023-03-31T10:31:07.688Z,52.50
2023-03-31T10:33:47.606Z,52.60
2023-03-31T10:36:31.095Z,53.30
2023-03-31T10:39:00.602Z,52.80
2023-03-31T10:41:32.061Z,52.90
2023-03-31T10:44:04.882Z,53.00
2023-03-31T10:46:45.341Z,53.30
2023-03-31T10:49:27.684Z,53.30
2023-03-31T10:52:02.547Z,53.40
2023-03-31T10:54:31.616Z,53.60
2023-03-31T10:57:04.864Z,53.70
2023-03-31T11:00:14.549Z,53.70
2023-03-31T11:03:19.983Z,53.80
2023-03-31T11:05:53.212Z,53.90
2023-03-31T11:08:46.646Z,54.10
2023-03-31T11:11:27.818Z,54.10
2023-03-31T11:14:23.009Z,54.20
2023-03-31T11:17:10.101Z,54.40
2023-03-31T11:19:58.204Z,54.50
2023-03-31T11:22:36.734Z,54.70
2023-03-31T11:25:30.417Z,54.80
2023-03-31T11:28:06.994Z,55.00
2023-03-31T11:31:23.558Z,55.00
2023-03-31T11:34:11.217Z,55.30
2023-03-31T11:37:14.435Z,55.00
2023-03-31T11:40:16.026Z,55.40
2023-03-31T11:42:57.872Z,55.60
2023-03-31T11:45:48.900Z,55.50
2023-03-31T11:49:00.443Z,55.60
2023-03-31T11:51:48.101Z,55.90
2023-03-31T11:54:26.879Z,55.80
2023-03-31T11:56:58.035Z,56.00
2023-03-31T11:59:31.275Z,55.90
2023-03-31T12:02:19.421Z,55.90
2023-03-31T12:04:54.834Z,56.00
2023-03-31T12:07:25.676Z,56.10
2023-03-31T12:10:23.328Z,56.30
2023-03-31T12:13:20.468Z,56.80
2023-03-31T12:16:04.606Z,56.60
2023-03-31T12:18:43.620Z,56.70
2023-03-31T12:21:12.842Z,56.90
2023-03-31T12:23:46.048Z,56.70
2023-03-31T12:26:33.241Z,57.30
2023-03-31T12:29:09.227Z,57.10
2023-03-31T12:31:41.975Z,57.10
2023-03-31T12:34:18.009Z,57.10
2023-03-31T12:36:49.798Z,57.30
2023-03-31T12:39:22.021Z,57.30
2023-03-31T12:42:15.312Z,57.40
2023-03-31T12:44:56.722Z,57.70
2023-03-31T12:47:25.733Z,57.80
2023-03-31T12:50:16.026Z,57.80
2023-03-31T12:52:44.939Z,57.70
2023-03-31T12:55:33.277Z,57.90
2023-03-31T12:58:32.939Z,58.00
2023-03-31T13:01:20.365Z,58.80
2023-03-31T13:04:20.058Z,58.30
2023-03-31T13:06:55.737Z,58.60
2023-03-31T13:09:46.970Z,58.30
2023-03-31T13:12:19.816Z,58.40
2023-03-31T13:14:55.656Z,58.40
2023-03-31T13:17:30.454Z,58.80
2023-03-31T13:20:20.353Z,59.00
2023-03-31T13:22:49.923Z,59.50
2023-03-31T13:25:36.983Z,59.40
2023-03-31T13:28:24.420Z,60.00
2023-03-31T13:31:03.210Z,59.60
2023-03-31T13:33:50.555Z,59.40
2023-03-31T13:36:28.458Z,59.30
2023-03-31T13:39:13.443Z,59.40
2023-03-31T13:41:57.604Z,60.00
2023-03-31T13:44:43.036Z,59.60
2023-03-31T13:47:21.204Z,60.10
2023-03-31T13:49:54.278Z,59.70
2023-03-31T13:53:00.309Z,59.80
2023-03-31T13:55:50.435Z,60.30
2023-03-31T13:58:36.604Z,59.80
2023-03-31T14:01:43.293Z,59.90
2023-03-31T14:04:39.668Z,60.40
2023-03-31T14:07:44.088Z,60.50
2023-03-31T14:10:34.143Z,59.90
2023-03-31T14:13:07.587Z,60.10
2023-03-31T14:15:39.108Z,59.90
2023-03-31T14:18:09.555Z,59.80
2023-03-31T14:20:46.648Z,59.90
2023-03-31T14:23:32.513Z,59.80
2023-03-31T14:26:01.480Z,59.90
2023-03-31T14:29:08.223Z,59.90
2023-03-31T14:31:46.756Z,60.30
2023-03-31T14:34:46.838Z,59.90
2023-03-31T14:37:22.219Z,60.30
2023-03-31T14:39:57.836Z,59.90
2023-03-31T14:42:31.279Z,60.00
2023-03-31T14:45:06.325Z,59.90
2023-03-31T14:47:35.314Z,60.10
2023-03-31T14:50:15.262Z,60.40
2023-03-31T14:52:49.972Z,60.80
2023-03-31T14:55:23.770Z,61.20
2023-03-31T14:57:55.669Z,61.00
2023-03-31T15:00:32.145Z,60.70
2023-03-31T15:03:14.887Z,60.70
2023-03-31T15:05:46.059Z,60.60
2023-03-31T15:08:24.022Z,60.30
2023-03-31T15:11:11.832Z,60.40
2023-03-31T15:14:00.641Z,60.10
2023-03-31T15:16:47.264Z,60.10
2023-03-31T15:19:25.983Z,60.00
2023-03-31T15:22:17.543Z,59.90
2023-03-31T15:24:47.766Z,59.90
2023-03-31T15:27:20.459Z,59.90
2023-03-31T15:29:57.400Z,59.90
2023-03-31T15:32:32.696Z,59.80
2023-03-31T15:37:57.587Z,59.70
2023-03-31T15:40:42.226Z,59.70
2023-03-31T15:43:20.547Z,59.70
2023-03-31T15:45:58.369Z,59.80
2023-03-31T15:48:37.673Z,59.80
2023-03-31T15:51:37.431Z,59.80
2023-03-31T15:54:34.923Z,60.00
2023-03-31T15:57:08.424Z,59.90
2023-03-31T15:59:56.378Z,59.90
2023-03-31T16:02:28.821Z,59.90
2023-03-31T16:05:00.448Z,59.90
2023-03-31T16:07:34.677Z,59.90
2023-03-31T16:10:06.416Z,59.90
2023-03-31T16:12:50.298Z,59.90
2023-03-31T16:15:25.096Z,59.90
2023-03-31T16:18:00.262Z,59.90
2023-03-31T16:20:41.939Z,59.90
2023-03-31T16:23:20.421Z,60.00
2023-03-31T16:25:49.752Z,60.00
2023-03-31T16:28:23.160Z,59.90
2023-03-31T16:30:52.248Z,59.90
2023-03-31T16:33:24.814Z,59.90
2023-03-31T16:35:57.416Z,59.90
2023-03-31T16:38:28.940Z,60.00
2023-03-31T16:41:01.696Z,60.20
2023-03-31T16:43:32.517Z,60.00
2023-03-31T16:46:05.206Z,60.20
2023-03-31T16:48:35.141Z,60.10
2023-03-31T16:51:05.249Z,60.00
2023-03-31T16:53:37.033Z,60.10
2023-03-31T16:56:09.701Z,60.30
2023-03-31T16:58:39.625Z,60.30
2023-03-31T17:01:10.201Z,60.40
2023-03-31T17:03:41.053Z,60.30
2023-03-31T17:06:13.264Z,60.40
2023-03-31T17:08:43.074Z,60.30
2023-03-31T17:11:15.965Z,60.30
2023-03-31T17:13:45.987Z,60.40
2023-03-31T17:19:04.459Z,61.30
2023-03-31T17:21:33.835Z,61.30
2023-03-31T17:24:03.446Z,61.60
2023-03-31T17:26:33.050Z,61.80
2023-03-31T17:29:02.260Z,62.00
2023-03-31T17:31:33.026Z,62.00
2023-03-31T17:34:02.668Z,62.20
2023-03-31T17:36:31.989Z,62.30
2023-03-31T17:39:01.867Z,62.30
2023-03-31T17:41:31.109Z,62.50
2023-03-31T17:44:00.305Z,62.60
2023-03-31T17:46:29.417Z,62.60
2023-03-31T17:48:59.664Z,62.60
2023-03-31T17:51:29.891Z,62.70
2023-03-31T17:53:59.460Z,62.70
2023-03-31T17:56:29.354Z,62.60
2023-03-31T17:58:58.606Z,62.90
2023-03-31T18:01:28.271Z,62.90
2023-03-31T18:03:58.888Z,63.00
2023-03-31T18:06:28.290Z,62.80
2023-03-31T18:09:01.386Z,63.10
2023-03-31T18:11:30.579Z,63.00
2023-03-31T18:14:03.136Z,63.10
2023-03-31T18:16:32.922Z,63.10
2023-03-31T18:19:01.922Z,63.30
2023-03-31T18:21:31.043Z,63.30
2023-03-31T18:24:00.071Z,63.30
2023-03-31T18:26:29.047Z,63.40
2023-03-31T18:28:58.121Z,63.60
2023-03-31T18:31:28.467Z,63.70
2023-03-31T18:33:58.887Z,63.60
2023-03-31T18:36:28.691Z,63.70
2023-03-31T18:38:58.520Z,64.00
2023-03-31T18:41:27.499Z,63.80
2023-03-31T18:43:56.547Z,63.90
2023-03-31T18:46:25.684Z,64.00
2023-03-31T18:48:54.719Z,64.30
2023-03-31T18:51:23.959Z,64.30
2023-03-31T18:53:52.915Z,64.60
2023-03-31T18:56:24.369Z,64.80
2023-03-31T18:58:53.944Z,64.70
2023-03-31T19:01:23.157Z,65.10
2023-03-31T19:03:52.195Z,65.70
2023-03-31T19:06:23.517Z,65.80
2023-03-31T19:08:53.171Z,65.60
2023-03-31T19:11:22.177Z,65.60
2023-03-31T19:13:51.325Z,65.50
2023-03-31T19:16:20.488Z,65.50
2023-03-31T19:18:49.999Z,65.70
2023-03-31T19:21:18.980Z,65.80
2023-03-31T19:23:48.227Z,66.00
2023-03-31T19:26:19.452Z,66.00
2023-03-31T19:28:51.718Z,66.10
2023-03-31T19:31:21.098Z,66.40
2023-03-31T19:33:50.350Z,66.50
2023-03-31T19:36:19.537Z,66.50
2023-03-31T19:38:48.580Z,66.60
2023-03-31T19:41:19.466Z,66.80
2023-03-31T19:43:49.095Z,66.90
2023-03-31T19:46:18.134Z,67.00
2023-03-31T19:48:47.774Z,67.10
2023-03-31T19:51:17.944Z,67.10
2023-03-31T19:53:47.798Z,67.50
2023-03-31T19:56:18.659Z,67.40
2023-03-31T19:58:48.349Z,67.70
2023-03-31T20:01:20.988Z,67.60
2023-03-31T20:03:57.165Z,68.10
2023-03-31T20:06:29.694Z,67.80
2023-03-31T20:09:01.599Z,67.70
2023-03-31T20:11:33.198Z,67.60
2023-03-31T20:14:03.376Z,67.70
2023-03-31T20:16:33.262Z,68.00
2023-03-31T20:19:05.665Z,68.30
2023-03-31T20:21:37.250Z,68.10
2023-03-31T20:24:07.466Z,68.20
2023-03-31T20:26:37.379Z,68.20
2023-03-31T20:29:06.347Z,68.20
2023-03-31T20:31:38.693Z,68.30
2023-03-31T20:34:13.426Z,68.30
2023-03-31T20:36:44.248Z,68.30
2023-03-31T20:39:15.819Z,68.80
2023-03-31T20:41:45.305Z,68.70
2023-03-31T20:44:16.016Z,68.90
2023-03-31T20:46:46.259Z,68.80
2023-03-31T20:49:15.288Z,69.10
2023-03-31T20:51:45.016Z,69.20
2023-03-31T20:54:14.528Z,69.00
2023-03-31T20:56:44.444Z,69.50
2023-03-31T20:59:16.342Z,69.50
2023-03-31T21:01:48.399Z,69.40
2023-03-31T21:04:18.117Z,69.50
2023-03-31T21:06:48.816Z,69.40
2023-03-31T21:09:18.693Z,69.60
2023-03-31T21:11:48.565Z,69.80
2023-03-31T21:14:18.341Z,70.20
2023-03-31T21:16:47.523Z,70.00
2023-03-31T21:19:16.674Z,70.30
2023-03-31T21:21:45.756Z,70.00
2023-03-31T21:24:15.430Z,70.30
2023-03-31T21:26:44.733Z,70.50
2023-03-31T21:29:13.660Z,70.40
2023-03-31T21:31:43.294Z,70.30
2023-03-31T21:34:12.559Z,70.50
2023-03-31T21:36:41.641Z,70.70
2023-03-31T21:39:10.954Z,70.70
2023-03-31T21:41:41.712Z,70.90
2023-03-31T21:44:11.228Z,71.10
2023-03-31T21:46:40.733Z,71.00
2023-03-31T21:49:10.821Z,70.90
2023-03-31T21:51:39.788Z,70.90
2023-03-31T21:54:08.742Z,71.20
2023-03-31T21:56:38.115Z,71.60
2023-03-31T21:59:07.482Z,71.30
2023-03-31T22:01:36.450Z,71.30
2023-03-31T22:04:05.451Z,71.30
2023-03-31T22:06:35.689Z,71.70
2023-03-31T22:09:04.801Z,71.60
2023-03-31T22:11:33.825Z,71.60
2023-03-31T22:14:02.792Z,71.60
2023-03-31T22:16:32.130Z,71.90
2023-03-31T22:19:01.393Z,72.00
2023-03-31T22:21:30.527Z,72.00
2023-03-31T22:24:01.958Z,72.00
2023-03-31T22:26:32.385Z,72.10
2023-03-31T22:29:01.382Z,72.00
2023-03-31T22:31:30.476Z,72.40
2023-03-31T22:33:59.714Z,72.40
2023-03-31T22:36:28.834Z,72.80
2023-03-31T22:38:57.912Z,72.30
2023-03-31T22:41:27.624Z,72.50
2023-03-31T22:43:56.667Z,73.00
2023-03-31T22:46:26.128Z,73.00
2023-03-31T22:48:55.071Z,73.00
2023-03-31T22:51:24.284Z,72.70
2023-03-31T22:53:55.032Z,72.70
2023-03-31T22:56:24.495Z,72.90
2023-03-31T22:58:54.137Z,73.00
2023-03-31T23:01:23.586Z,73.30
2023-03-31T23:03:52.742Z,73.40
2023-03-31T23:06:21.771Z,73.20
2023-03-31T23:08:51.142Z,73.30
2023-03-31T23:11:20.367Z,73.40
2023-03-31T23:13:50.011Z,73.60
2023-03-31T23:16:24.730Z,73.50
2023-03-31T23:18:55.669Z,73.30
2023-03-31T23:21:28.445Z,73.70
2023-03-31T23:24:00.751Z,73.40
2023-03-31T23:26:31.913Z,73.50
2023-03-31T23:29:01.261Z,73.40
2023-03-31T23:31:34.414Z,73.50
2023-03-31T23:34:03.636Z,73.60
2023-03-31T23:36:33.010Z,74.20
2023-03-31T23:39:02.003Z,74.20
2023-03-31T23:41:31.119Z,74.10
2023-03-31T23:44:00.334Z,74.30
2023-03-31T23:46:30.843Z,75.00
2023-03-31T23:48:59.860Z,74.20
2023-03-31T23:51:28.914Z,74.10
2023-03-31T23:53:58.153Z,74.20
2023-03-31T23:56:29.642Z,74.30
2023-03-31T23:58:58.677Z,74.50
